sensor_id;sensor_type;location;lat;lon;timestamp;P1;durP1;ratioP1;P2;durP2;ratioP2
50853;SDS011;44154;45.506;-122.806;2022-08-19T00:00:42;1661.25;;;175.40;;
50853;SDS011;44154;45.506;-122.806;2022-08-19T00:03:08;1258.53;;;116.65;;
50853;SDS011;44154;45.506;-122.806;2022-08-19T00:05:34;1999.90;;;242.32;;
50853;SDS011;44154;45.506;-122.806;2022-08-19T00:08:01;1999.90;;;206.32;;
50853;SDS011;44154;45.506;-122.806;2022-08-19T00:10:28;1414.68;;;146.75;;
50853;SDS011;44154;45.506;-122.806;2022-08-19T00:12:54;1665.75;;;180.05;;
50853;SDS011;44154;45.506;-122.806;2022-08-19T00:15:21;1999.90;;;198.05;;
50853;SDS011;44154;45.506;-122.806;2022-08-19T00:17:48;1999.90;;;247.90;;
50853;SDS011;44154;45.506;-122.806;2022-08-19T00:20:15;1896.30;;;169.18;;
50853;SDS011;44154;45.506;-122.806;2022-08-19T00:22:44;1999.90;;;204.75;;
50853;SDS011;44154;45.506;-122.806;2022-08-19T00:25:12;1863.43;;;189.95;;
50853;SDS011;44154;45.506;-122.806;2022-08-19T00:27:38;1680.38;;;160.30;;
50853;SDS011;44154;45.506;-122.806;2022-08-19T00:30:06;1426.50;;;140.02;;
50853;SDS011;44154;45.506;-122.806;2022-08-19T00:32:35;1100.07;;;105.15;;
50853;SDS011;44154;45.506;-122.806;2022-08-19T00:35:02;1574.03;;;135.20;;
50853;SDS011;44154;45.506;-122.806;2022-08-19T00:37:29;1579.47;;;144.38;;
50853;SDS011;44154;45.506;-122.806;2022-08-19T00:39:55;1999.90;;;292.35;;
50853;SDS011;44154;45.506;-122.806;2022-08-19T00:42:21;1338.78;;;147.73;;
50853;SDS011;44154;45.506;-122.806;2022-08-19T00:44:48;1725.18;;;170.02;;
50853;SDS011;44154;45.506;-122.806;2022-08-19T00:47:15;1817.47;;;199.98;;
50853;SDS011;44154;45.506;-122.806;2022-08-19T00:49:48;1829.30;;;195.70;;
50853;SDS011;44154;45.506;-122.806;2022-08-19T00:52:21;1737.47;;;173.15;;
50853;SDS011;44154;45.506;-122.806;2022-08-19T00:54:52;1762.18;;;184.60;;
50853;SDS011;44154;45.506;-122.806;2022-08-19T00:57:20;1655.72;;;207.15;;
50853;SDS011;44154;45.506;-122.806;2022-08-19T00:59:52;1464.45;;;145.77;;
50853;SDS011;44154;45.506;-122.806;2022-08-19T01:02:20;1879.90;;;177.27;;
50853;SDS011;44154;45.506;-122.806;2022-08-19T01:04:47;1482.63;;;143.05;;
50853;SDS011;44154;45.506;-122.806;2022-08-19T01:07:13;1065.18;;;121.25;;
50853;SDS011;44154;45.506;-122.806;2022-08-19T01:09:39;1999.90;;;347.60;;
50853;SDS011;44154;45.506;-122.806;2022-08-19T01:12:05;1722.10;;;220.20;;
50853;SDS011;44154;45.506;-122.806;2022-08-19T01:14:32;1999.90;;;313.13;;
50853;SDS011;44154;45.506;-122.806;2022-08-19T01:17:00;1999.90;;;345.85;;
50853;SDS011;44154;45.506;-122.806;2022-08-19T01:19:37;1999.90;;;298.65;;
50853;SDS011;44154;45.506;-122.806;2022-08-19T01:22:17;1790.80;;;235.15;;
50853;SDS011;44154;45.506;-122.806;2022-08-19T01:24:45;1999.90;;;290.75;;
50853;SDS011;44154;45.506;-122.806;2022-08-19T01:27:11;1999.90;;;296.90;;
50853;SDS011;44154;45.506;-122.806;2022-08-19T01:29:39;1999.90;;;371.42;;
50853;SDS011;44154;45.506;-122.806;2022-08-19T01:33:21;6.32;;;4.03;;
50853;SDS011;44154;45.506;-122.806;2022-08-19T01:35:47;6.57;;;4.60;;
50853;SDS011;44154;45.506;-122.806;2022-08-19T01:38:22;6.20;;;3.90;;
50853;SDS011;44154;45.506;-122.806;2022-08-19T01:40:51;7.03;;;4.13;;
50853;SDS011;44154;45.506;-122.806;2022-08-19T01:43:18;7.22;;;4.50;;
50853;SDS011;44154;45.506;-122.806;2022-08-19T01:45:45;6.90;;;4.07;;
50853;SDS011;44154;45.506;-122.806;2022-08-19T01:48:12;7.22;;;4.00;;
50853;SDS011;44154;45.506;-122.806;2022-08-19T01:50:39;6.82;;;4.05;;
50853;SDS011;44154;45.506;-122.806;2022-08-19T01:53:07;5.60;;;4.15;;
50853;SDS011;44154;45.506;-122.806;2022-08-19T01:55:37;5.65;;;4.13;;
50853;SDS011;44154;45.506;-122.806;2022-08-19T01:58:05;6.80;;;4.20;;
50853;SDS011;44154;45.506;-122.806;2022-08-19T02:00:33;5.57;;;3.65;;
50853;SDS011;44154;45.506;-122.806;2022-08-19T02:02:59;5.32;;;4.00;;
50853;SDS011;44154;45.506;-122.806;2022-08-19T02:05:26;8.02;;;4.25;;
50853;SDS011;44154;45.506;-122.806;2022-08-19T02:07:54;6.97;;;4.50;;
50853;SDS011;44154;45.506;-122.806;2022-08-19T02:10:22;6.70;;;4.20;;
50853;SDS011;44154;45.506;-122.806;2022-08-19T02:12:48;6.28;;;4.13;;
50853;SDS011;44154;45.506;-122.806;2022-08-19T02:15:16;7.78;;;3.65;;
50853;SDS011;44154;45.506;-122.806;2022-08-19T02:17:44;5.75;;;3.50;;
50853;SDS011;44154;45.506;-122.806;2022-08-19T02:20:11;6.25;;;4.28;;
50853;SDS011;44154;45.506;-122.806;2022-08-19T02:22:39;6.55;;;4.40;;
50853;SDS011;44154;45.506;-122.806;2022-08-19T02:25:08;8.73;;;4.47;;
50853;SDS011;44154;45.506;-122.806;2022-08-19T02:27:39;6.97;;;3.97;;
50853;SDS011;44154;45.506;-122.806;2022-08-19T02:30:07;8.52;;;4.50;;
50853;SDS011;44154;45.506;-122.806;2022-08-19T02:32:41;11.98;;;4.65;;
50853;SDS011;44154;45.506;-122.806;2022-08-19T02:35:08;6.88;;;4.55;;
50853;SDS011;44154;45.506;-122.806;2022-08-19T02:37:34;6.45;;;4.18;;
50853;SDS011;44154;45.506;-122.806;2022-08-19T02:40:18;9.07;;;4.63;;
50853;SDS011;44154;45.506;-122.806;2022-08-19T02:42:45;6.85;;;4.20;;
50853;SDS011;44154;45.506;-122.806;2022-08-19T02:45:12;6.20;;;4.05;;
50853;SDS011;44154;45.506;-122.806;2022-08-19T02:47:39;6.75;;;3.92;;
50853;SDS011;44154;45.506;-122.806;2022-08-19T02:50:06;10.30;;;4.82;;
50853;SDS011;44154;45.506;-122.806;2022-08-19T02:52:33;7.15;;;4.35;;
50853;SDS011;44154;45.506;-122.806;2022-08-19T02:55:00;7.78;;;4.63;;
50853;SDS011;44154;45.506;-122.806;2022-08-19T02:57:26;10.30;;;4.65;;
50853;SDS011;44154;45.506;-122.806;2022-08-19T02:59:53;6.88;;;3.80;;
50853;SDS011;44154;45.506;-122.806;2022-08-19T03:02:19;5.72;;;4.40;;
50853;SDS011;44154;45.506;-122.806;2022-08-19T03:04:45;7.57;;;4.45;;
50853;SDS011;44154;45.506;-122.806;2022-08-19T03:07:15;6.88;;;4.22;;
50853;SDS011;44154;45.506;-122.806;2022-08-19T03:09:42;9.65;;;4.35;;
50853;SDS011;44154;45.506;-122.806;2022-08-19T03:12:08;9.45;;;4.40;;
50853;SDS011;44154;45.506;-122.806;2022-08-19T03:14:35;9.75;;;4.90;;
50853;SDS011;44154;45.506;-122.806;2022-08-19T03:17:02;8.60;;;4.60;;
50853;SDS011;44154;45.506;-122.806;2022-08-19T03:19:29;7.47;;;4.70;;
50853;SDS011;44154;45.506;-122.806;2022-08-19T03:21:56;7.03;;;4.82;;
50853;SDS011;44154;45.506;-122.806;2022-08-19T03:24:23;7.68;;;4.88;;
50853;SDS011;44154;45.506;-122.806;2022-08-19T03:26:51;7.53;;;4.05;;
50853;SDS011;44154;45.506;-122.806;2022-08-19T03:29:22;7.07;;;4.55;;
50853;SDS011;44154;45.506;-122.806;2022-08-19T03:31:49;8.48;;;4.43;;
50853;SDS011;44154;45.506;-122.806;2022-08-19T03:34:24;7.13;;;4.40;;
50853;SDS011;44154;45.506;-122.806;2022-08-19T03:36:52;6.97;;;4.10;;
50853;SDS011;44154;45.506;-122.806;2022-08-19T03:39:20;8.07;;;4.88;;
50853;SDS011;44154;45.506;-122.806;2022-08-19T03:41:48;9.63;;;4.63;;
50853;SDS011;44154;45.506;-122.806;2022-08-19T03:44:17;8.48;;;4.78;;
50853;SDS011;44154;45.506;-122.806;2022-08-19T03:46:51;9.60;;;4.80;;
50853;SDS011;44154;45.506;-122.806;2022-08-19T03:49:20;7.55;;;4.35;;
50853;SDS011;44154;45.506;-122.806;2022-08-19T03:51:49;7.20;;;4.25;;
50853;SDS011;44154;45.506;-122.806;2022-08-19T03:54:17;6.47;;;4.60;;
50853;SDS011;44154;45.506;-122.806;2022-08-19T03:56:46;7.40;;;4.57;;
50853;SDS011;44154;45.506;-122.806;2022-08-19T03:59:15;7.32;;;4.25;;
50853;SDS011;44154;45.506;-122.806;2022-08-19T04:01:45;5.78;;;4.22;;
50853;SDS011;44154;45.506;-122.806;2022-08-19T04:04:11;7.25;;;4.72;;
50853;SDS011;44154;45.506;-122.806;2022-08-19T04:06:38;6.63;;;4.20;;
50853;SDS011;44154;45.506;-122.806;2022-08-19T04:09:05;8.18;;;4.82;;
50853;SDS011;44154;45.506;-122.806;2022-08-19T04:11:35;8.15;;;4.90;;
50853;SDS011;44154;45.506;-122.806;2022-08-19T04:14:09;5.82;;;4.55;;
50853;SDS011;44154;45.506;-122.806;2022-08-19T04:16:37;6.97;;;4.50;;
50853;SDS011;44154;45.506;-122.806;2022-08-19T04:19:04;7.65;;;4.50;;
50853;SDS011;44154;45.506;-122.806;2022-08-19T04:21:32;7.25;;;4.55;;
50853;SDS011;44154;45.506;-122.806;2022-08-19T04:23:58;6.65;;;4.47;;
50853;SDS011;44154;45.506;-122.806;2022-08-19T04:26:26;9.50;;;4.88;;
50853;SDS011;44154;45.506;-122.806;2022-08-19T04:28:57;6.63;;;4.67;;
50853;SDS011;44154;45.506;-122.806;2022-08-19T04:31:25;6.47;;;4.70;;
50853;SDS011;44154;45.506;-122.806;2022-08-19T04:33:57;7.05;;;4.88;;
50853;SDS011;44154;45.506;-122.806;2022-08-19T04:36:27;6.15;;;4.70;;
50853;SDS011;44154;45.506;-122.806;2022-08-19T04:38:59;7.00;;;4.70;;
50853;SDS011;44154;45.506;-122.806;2022-08-19T04:41:28;5.70;;;4.60;;
50853;SDS011;44154;45.506;-122.806;2022-08-19T04:44:13;6.18;;;4.65;;
50853;SDS011;44154;45.506;-122.806;2022-08-19T04:46:39;14.75;;;4.82;;
50853;SDS011;44154;45.506;-122.806;2022-08-19T04:49:06;6.00;;;4.00;;
50853;SDS011;44154;45.506;-122.806;2022-08-19T04:51:34;6.90;;;4.82;;
50853;SDS011;44154;45.506;-122.806;2022-08-19T04:54:01;7.80;;;5.00;;
50853;SDS011;44154;45.506;-122.806;2022-08-19T04:56:28;6.35;;;4.50;;
50853;SDS011;44154;45.506;-122.806;2022-08-19T04:58:55;7.22;;;4.90;;
50853;SDS011;44154;45.506;-122.806;2022-08-19T05:01:26;5.97;;;4.63;;
50853;SDS011;44154;45.506;-122.806;2022-08-19T05:03:55;6.18;;;4.53;;
50853;SDS011;44154;45.506;-122.806;2022-08-19T05:06:23;6.32;;;4.65;;
50853;SDS011;44154;45.506;-122.806;2022-08-19T05:08:50;13.98;;;5.00;;
50853;SDS011;44154;45.506;-122.806;2022-08-19T05:11:18;7.10;;;5.03;;
50853;SDS011;44154;45.506;-122.806;2022-08-19T05:13:46;7.97;;;4.80;;
50853;SDS011;44154;45.506;-122.806;2022-08-19T05:16:18;7.50;;;4.50;;
50853;SDS011;44154;45.506;-122.806;2022-08-19T05:18:45;7.25;;;4.78;;
50853;SDS011;44154;45.506;-122.806;2022-08-19T05:21:30;6.70;;;5.00;;
50853;SDS011;44154;45.506;-122.806;2022-08-19T05:24:15;5.97;;;4.72;;
50853;SDS011;44154;45.506;-122.806;2022-08-19T05:26:44;7.68;;;5.00;;
50853;SDS011;44154;45.506;-122.806;2022-08-19T05:29:14;8.32;;;5.40;;
50853;SDS011;44154;45.506;-122.806;2022-08-19T05:31:41;6.53;;;5.22;;
50853;SDS011;44154;45.506;-122.806;2022-08-19T05:34:08;7.35;;;5.13;;
50853;SDS011;44154;45.506;-122.806;2022-08-19T05:36:37;7.80;;;5.18;;
50853;SDS011;44154;45.506;-122.806;2022-08-19T05:39:06;8.32;;;5.10;;
50853;SDS011;44154;45.506;-122.806;2022-08-19T05:41:33;9.45;;;5.40;;
50853;SDS011;44154;45.506;-122.806;2022-08-19T05:44:04;10.77;;;5.70;;
50853;SDS011;44154;45.506;-122.806;2022-08-19T05:46:34;9.65;;;5.93;;
50853;SDS011;44154;45.506;-122.806;2022-08-19T05:49:05;9.55;;;6.10;;
50853;SDS011;44154;45.506;-122.806;2022-08-19T05:51:32;7.45;;;5.18;;
50853;SDS011;44154;45.506;-122.806;2022-08-19T05:54:03;8.13;;;5.82;;
50853;SDS011;44154;45.506;-122.806;2022-08-19T05:56:32;10.27;;;5.88;;
50853;SDS011;44154;45.506;-122.806;2022-08-19T05:59:00;9.15;;;5.95;;
50853;SDS011;44154;45.506;-122.806;2022-08-19T06:01:26;8.80;;;6.72;;
50853;SDS011;44154;45.506;-122.806;2022-08-19T06:03:52;9.98;;;7.20;;
50853;SDS011;44154;45.506;-122.806;2022-08-19T06:06:19;10.30;;;6.85;;
50853;SDS011;44154;45.506;-122.806;2022-08-19T06:08:46;9.80;;;5.82;;
50853;SDS011;44154;45.506;-122.806;2022-08-19T06:12:15;9.25;;;6.30;;
50853;SDS011;44154;45.506;-122.806;2022-08-19T06:14:18;10.45;;;6.40;;
50853;SDS011;44154;45.506;-122.806;2022-08-19T06:16:47;13.98;;;5.93;;
50853;SDS011;44154;45.506;-122.806;2022-08-19T06:19:17;9.63;;;6.03;;
50853;SDS011;44154;45.506;-122.806;2022-08-19T06:21:45;15.52;;;7.80;;
50853;SDS011;44154;45.506;-122.806;2022-08-19T06:24:14;13.23;;;6.45;;
50853;SDS011;44154;45.506;-122.806;2022-08-19T06:26:43;10.60;;;6.40;;
50853;SDS011;44154;45.506;-122.806;2022-08-19T06:29:12;8.00;;;6.10;;
50853;SDS011;44154;45.506;-122.806;2022-08-19T06:31:41;8.10;;;6.40;;
50853;SDS011;44154;45.506;-122.806;2022-08-19T06:34:10;9.70;;;6.25;;
50853;SDS011;44154;45.506;-122.806;2022-08-19T06:36:38;9.35;;;5.75;;
50853;SDS011;44154;45.506;-122.806;2022-08-19T06:39:08;9.73;;;5.95;;
50853;SDS011;44154;45.506;-122.806;2022-08-19T06:41:37;8.68;;;5.88;;
50853;SDS011;44154;45.506;-122.806;2022-08-19T06:44:05;8.27;;;5.80;;
50853;SDS011;44154;45.506;-122.806;2022-08-19T06:46:32;8.27;;;5.88;;
50853;SDS011;44154;45.506;-122.806;2022-08-19T06:48:59;10.77;;;6.32;;
50853;SDS011;44154;45.506;-122.806;2022-08-19T06:51:25;11.32;;;6.13;;
50853;SDS011;44154;45.506;-122.806;2022-08-19T06:53:52;7.40;;;5.93;;
50853;SDS011;44154;45.506;-122.806;2022-08-19T06:56:21;6.85;;;5.80;;
50853;SDS011;44154;45.506;-122.806;2022-08-19T06:58:59;8.85;;;6.28;;
50853;SDS011;44154;45.506;-122.806;2022-08-19T07:01:33;7.65;;;5.85;;
50853;SDS011;44154;45.506;-122.806;2022-08-19T07:04:05;9.15;;;6.28;;
50853;SDS011;44154;45.506;-122.806;2022-08-19T07:06:32;9.55;;;6.18;;
50853;SDS011;44154;45.506;-122.806;2022-08-19T07:08:58;8.65;;;6.30;;
50853;SDS011;44154;45.506;-122.806;2022-08-19T07:11:24;7.50;;;5.88;;
50853;SDS011;44154;45.506;-122.806;2022-08-19T07:13:51;9.63;;;5.88;;
50853;SDS011;44154;45.506;-122.806;2022-08-19T07:16:18;7.07;;;5.80;;
50853;SDS011;44154;45.506;-122.806;2022-08-19T07:18:46;10.27;;;6.07;;
50853;SDS011;44154;45.506;-122.806;2022-08-19T07:21:20;8.90;;;5.75;;
50853;SDS011;44154;45.506;-122.806;2022-08-19T07:23:54;12.35;;;6.20;;
50853;SDS011;44154;45.506;-122.806;2022-08-19T07:26:23;8.93;;;5.68;;
50853;SDS011;44154;45.506;-122.806;2022-08-19T07:28:56;9.90;;;6.00;;
50853;SDS011;44154;45.506;-122.806;2022-08-19T07:31:23;8.90;;;5.95;;
50853;SDS011;44154;45.506;-122.806;2022-08-19T07:33:52;12.40;;;6.30;;
50853;SDS011;44154;45.506;-122.806;2022-08-19T07:36:22;11.18;;;5.90;;
50853;SDS011;44154;45.506;-122.806;2022-08-19T07:38:57;10.02;;;5.80;;
50853;SDS011;44154;45.506;-122.806;2022-08-19T07:41:26;10.07;;;5.53;;
50853;SDS011;44154;45.506;-122.806;2022-08-19T07:43:54;11.02;;;5.78;;
50853;SDS011;44154;45.506;-122.806;2022-08-19T07:46:20;8.73;;;5.63;;
50853;SDS011;44154;45.506;-122.806;2022-08-19T07:48:47;9.60;;;6.30;;
50853;SDS011;44154;45.506;-122.806;2022-08-19T07:51:16;8.50;;;5.55;;
50853;SDS011;44154;45.506;-122.806;2022-08-19T07:53:46;11.00;;;6.20;;
50853;SDS011;44154;45.506;-122.806;2022-08-19T07:56:14;9.82;;;5.95;;
50853;SDS011;44154;45.506;-122.806;2022-08-19T07:58:42;7.78;;;5.70;;
50853;SDS011;44154;45.506;-122.806;2022-08-19T08:01:11;8.70;;;5.75;;
50853;SDS011;44154;45.506;-122.806;2022-08-19T08:03:40;9.55;;;5.45;;
50853;SDS011;44154;45.506;-122.806;2022-08-19T08:06:24;9.68;;;5.85;;
50853;SDS011;44154;45.506;-122.806;2022-08-19T08:09:09;10.45;;;5.90;;
50853;SDS011;44154;45.506;-122.806;2022-08-19T08:11:40;9.05;;;5.50;;
50853;SDS011;44154;45.506;-122.806;2022-08-19T08:14:14;8.50;;;5.53;;
50853;SDS011;44154;45.506;-122.806;2022-08-19T08:16:43;9.38;;;5.50;;
50853;SDS011;44154;45.506;-122.806;2022-08-19T08:19:11;10.10;;;5.35;;
50853;SDS011;44154;45.506;-122.806;2022-08-19T08:21:41;8.45;;;5.30;;
50853;SDS011;44154;45.506;-122.806;2022-08-19T08:24:08;8.15;;;5.32;;
50853;SDS011;44154;45.506;-122.806;2022-08-19T08:26:35;11.48;;;5.53;;
50853;SDS011;44154;45.506;-122.806;2022-08-19T08:29:01;7.13;;;4.95;;
50853;SDS011;44154;45.506;-122.806;2022-08-19T08:31:28;7.82;;;5.53;;
50853;SDS011;44154;45.506;-122.806;2022-08-19T08:33:54;8.73;;;5.15;;
50853;SDS011;44154;45.506;-122.806;2022-08-19T08:36:21;10.93;;;5.10;;
50853;SDS011;44154;45.506;-122.806;2022-08-19T08:38:47;10.25;;;5.40;;
50853;SDS011;44154;45.506;-122.806;2022-08-19T08:43:49;6.95;;;4.78;;
50853;SDS011;44154;45.506;-122.806;2022-08-19T08:46:26;7.85;;;5.43;;
50853;SDS011;44154;45.506;-122.806;2022-08-19T08:51:36;9.50;;;4.53;;
50853;SDS011;44154;45.506;-122.806;2022-08-19T08:54:09;7.10;;;4.28;;
50853;SDS011;44154;45.506;-122.806;2022-08-19T08:56:39;7.82;;;4.03;;
50853;SDS011;44154;45.506;-122.806;2022-08-19T08:59:30;8.10;;;4.40;;
50853;SDS011;44154;45.506;-122.806;2022-08-19T09:02:00;6.90;;;4.00;;
50853;SDS011;44154;45.506;-122.806;2022-08-19T09:04:26;6.47;;;4.10;;
50853;SDS011;44154;45.506;-122.806;2022-08-19T09:09:46;7.03;;;4.10;;
50853;SDS011;44154;45.506;-122.806;2022-08-19T09:14:55;5.78;;;3.70;;
50853;SDS011;44154;45.506;-122.806;2022-08-19T09:17:26;5.88;;;3.65;;
50853;SDS011;44154;45.506;-122.806;2022-08-19T09:22:45;7.82;;;3.80;;
50853;SDS011;44154;45.506;-122.806;2022-08-19T09:25:13;6.68;;;3.85;;
50853;SDS011;44154;45.506;-122.806;2022-08-19T09:27:41;35.63;;;5.00;;
50853;SDS011;44154;45.506;-122.806;2022-08-19T09:30:10;7.65;;;3.95;;
50853;SDS011;44154;45.506;-122.806;2022-08-19T09:32:43;5.43;;;3.45;;
50853;SDS011;44154;45.506;-122.806;2022-08-19T09:35:10;6.40;;;3.38;;
50853;SDS011;44154;45.506;-122.806;2022-08-19T09:37:39;5.72;;;2.95;;
50853;SDS011;44154;45.506;-122.806;2022-08-19T09:40:05;6.15;;;2.92;;
50853;SDS011;44154;45.506;-122.806;2022-08-19T09:42:32;6.13;;;3.33;;
50853;SDS011;44154;45.506;-122.806;2022-08-19T09:44:59;5.45;;;3.15;;
50853;SDS011;44154;45.506;-122.806;2022-08-19T09:47:25;5.32;;;2.95;;
50853;SDS011;44154;45.506;-122.806;2022-08-19T09:49:52;6.35;;;2.83;;
50853;SDS011;44154;45.506;-122.806;2022-08-19T09:52:18;6.40;;;3.10;;
50853;SDS011;44154;45.506;-122.806;2022-08-19T09:54:44;5.20;;;2.90;;
50853;SDS011;44154;45.506;-122.806;2022-08-19T09:57:10;7.60;;;3.03;;
50853;SDS011;44154;45.506;-122.806;2022-08-19T09:59:36;5.57;;;2.50;;
50853;SDS011;44154;45.506;-122.806;2022-08-19T10:02:03;7.15;;;3.08;;
50853;SDS011;44154;45.506;-122.806;2022-08-19T10:04:30;6.70;;;2.53;;
50853;SDS011;44154;45.506;-122.806;2022-08-19T10:07:15;6.57;;;2.42;;
50853;SDS011;44154;45.506;-122.806;2022-08-19T10:09:41;4.05;;;2.42;;
50853;SDS011;44154;45.506;-122.806;2022-08-19T10:12:07;4.25;;;2.50;;
50853;SDS011;44154;45.506;-122.806;2022-08-19T10:14:34;5.15;;;2.40;;
50853;SDS011;44154;45.506;-122.806;2022-08-19T10:17:00;5.13;;;2.47;;
50853;SDS011;44154;45.506;-122.806;2022-08-19T10:19:28;6.13;;;2.30;;
50853;SDS011;44154;45.506;-122.806;2022-08-19T10:22:02;4.70;;;2.30;;
50853;SDS011;44154;45.506;-122.806;2022-08-19T10:24:30;5.63;;;2.40;;
50853;SDS011;44154;45.506;-122.806;2022-08-19T10:26:57;5.82;;;2.58;;
50853;SDS011;44154;45.506;-122.806;2022-08-19T10:29:24;4.72;;;2.10;;
50853;SDS011;44154;45.506;-122.806;2022-08-19T10:31:53;3.65;;;2.30;;
50853;SDS011;44154;45.506;-122.806;2022-08-19T10:34:19;4.47;;;2.30;;
50853;SDS011;44154;45.506;-122.806;2022-08-19T10:36:45;5.07;;;2.22;;
50853;SDS011;44154;45.506;-122.806;2022-08-19T10:39:11;3.97;;;1.98;;
50853;SDS011;44154;45.506;-122.806;2022-08-19T10:41:38;4.85;;;2.17;;
50853;SDS011;44154;45.506;-122.806;2022-08-19T10:44:06;3.42;;;1.70;;
50853;SDS011;44154;45.506;-122.806;2022-08-19T10:46:35;4.47;;;2.03;;
50853;SDS011;44154;45.506;-122.806;2022-08-19T10:49:07;4.07;;;2.10;;
50853;SDS011;44154;45.506;-122.806;2022-08-19T10:51:35;3.17;;;1.90;;
50853;SDS011;44154;45.506;-122.806;2022-08-19T10:54:20;4.18;;;2.08;;
50853;SDS011;44154;45.506;-122.806;2022-08-19T10:56:46;3.80;;;1.77;;
50853;SDS011;44154;45.506;-122.806;2022-08-19T10:59:22;5.03;;;1.88;;
50853;SDS011;44154;45.506;-122.806;2022-08-19T11:01:50;4.65;;;1.80;;
50853;SDS011;44154;45.506;-122.806;2022-08-19T11:04:17;4.03;;;2.00;;
50853;SDS011;44154;45.506;-122.806;2022-08-19T11:06:45;5.28;;;2.00;;
50853;SDS011;44154;45.506;-122.806;2022-08-19T11:09:14;4.50;;;1.95;;
50853;SDS011;44154;45.506;-122.806;2022-08-19T11:11:41;3.35;;;2.17;;
50853;SDS011;44154;45.506;-122.806;2022-08-19T11:14:09;38.22;;;5.10;;
50853;SDS011;44154;45.506;-122.806;2022-08-19T11:16:36;4.85;;;1.83;;
50853;SDS011;44154;45.506;-122.806;2022-08-19T11:19:06;3.47;;;1.80;;
50853;SDS011;44154;45.506;-122.806;2022-08-19T11:21:36;3.25;;;1.75;;
50853;SDS011;44154;45.506;-122.806;2022-08-19T11:24:06;3.08;;;1.55;;
50853;SDS011;44154;45.506;-122.806;2022-08-19T11:26:43;3.60;;;1.63;;
50853;SDS011;44154;45.506;-122.806;2022-08-19T11:29:10;3.05;;;1.45;;
50853;SDS011;44154;45.506;-122.806;2022-08-19T11:31:42;3.95;;;1.58;;
50853;SDS011;44154;45.506;-122.806;2022-08-19T11:34:11;3.92;;;1.60;;
50853;SDS011;44154;45.506;-122.806;2022-08-19T11:36:42;2.58;;;1.30;;
50853;SDS011;44154;45.506;-122.806;2022-08-19T11:39:10;3.15;;;1.42;;
50853;SDS011;44154;45.506;-122.806;2022-08-19T11:41:39;2.40;;;1.33;;
50853;SDS011;44154;45.506;-122.806;2022-08-19T11:44:06;2.80;;;1.40;;
50853;SDS011;44154;45.506;-122.806;2022-08-19T11:46:33;3.00;;;1.30;;
50853;SDS011;44154;45.506;-122.806;2022-08-19T11:49:01;3.30;;;1.25;;
50853;SDS011;44154;45.506;-122.806;2022-08-19T11:51:29;3.53;;;1.15;;
50853;SDS011;44154;45.506;-122.806;2022-08-19T11:53:56;3.80;;;1.45;;
50853;SDS011;44154;45.506;-122.806;2022-08-19T11:56:24;3.88;;;1.50;;
50853;SDS011;44154;45.506;-122.806;2022-08-19T11:58:51;1.95;;;1.20;;
50853;SDS011;44154;45.506;-122.806;2022-08-19T12:01:20;2.28;;;1.00;;
50853;SDS011;44154;45.506;-122.806;2022-08-19T12:03:48;4.40;;;1.48;;
50853;SDS011;44154;45.506;-122.806;2022-08-19T12:06:17;2.90;;;1.38;;
50853;SDS011;44154;45.506;-122.806;2022-08-19T12:08:45;2.10;;;0.98;;
50853;SDS011;44154;45.506;-122.806;2022-08-19T12:11:13;2.30;;;0.90;;
50853;SDS011;44154;45.506;-122.806;2022-08-19T12:13:40;2.58;;;1.02;;
50853;SDS011;44154;45.506;-122.806;2022-08-19T12:16:11;2.97;;;1.25;;
50853;SDS011;44154;45.506;-122.806;2022-08-19T12:18:39;3.17;;;1.13;;
50853;SDS011;44154;45.506;-122.806;2022-08-19T12:21:09;2.75;;;0.90;;
50853;SDS011;44154;45.506;-122.806;2022-08-19T12:23:36;2.90;;;0.90;;
50853;SDS011;44154;45.506;-122.806;2022-08-19T12:26:03;2.80;;;0.90;;
50853;SDS011;44154;45.506;-122.806;2022-08-19T12:28:30;2.30;;;0.75;;
50853;SDS011;44154;45.506;-122.806;2022-08-19T12:30:56;2.95;;;0.80;;
50853;SDS011;44154;45.506;-122.806;2022-08-19T12:33:23;3.38;;;0.90;;
50853;SDS011;44154;45.506;-122.806;2022-08-19T12:35:53;1.70;;;0.70;;
50853;SDS011;44154;45.506;-122.806;2022-08-19T12:38:19;2.40;;;0.70;;
50853;SDS011;44154;45.506;-122.806;2022-08-19T12:40:49;3.10;;;0.70;;
50853;SDS011;44154;45.506;-122.806;2022-08-19T12:43:17;2.67;;;0.70;;
50853;SDS011;44154;45.506;-122.806;2022-08-19T12:45:44;1.55;;;0.70;;
50853;SDS011;44154;45.506;-122.806;2022-08-19T12:48:11;1.77;;;0.73;;
50853;SDS011;44154;45.506;-122.806;2022-08-19T12:50:41;3.03;;;0.70;;
50853;SDS011;44154;45.506;-122.806;2022-08-19T12:53:11;1.67;;;0.57;;
50853;SDS011;44154;45.506;-122.806;2022-08-19T12:55:37;1.98;;;0.65;;
50853;SDS011;44154;45.506;-122.806;2022-08-19T12:58:03;2.05;;;0.70;;
50853;SDS011;44154;45.506;-122.806;2022-08-19T13:00:29;2.47;;;0.65;;
50853;SDS011;44154;45.506;-122.806;2022-08-19T13:02:58;2.83;;;0.80;;
50853;SDS011;44154;45.506;-122.806;2022-08-19T13:05:29;2.63;;;0.80;;
50853;SDS011;44154;45.506;-122.806;2022-08-19T13:07:57;2.67;;;0.70;;
50853;SDS011;44154;45.506;-122.806;2022-08-19T13:10:32;59.90;;;5.38;;
50853;SDS011;44154;45.506;-122.806;2022-08-19T13:13:00;2.85;;;0.80;;
50853;SDS011;44154;45.506;-122.806;2022-08-19T13:15:33;2.92;;;0.90;;
50853;SDS011;44154;45.506;-122.806;2022-08-19T13:18:05;1.52;;;0.70;;
50853;SDS011;44154;45.506;-122.806;2022-08-19T13:20:34;2.10;;;0.70;;
50853;SDS011;44154;45.506;-122.806;2022-08-19T13:23:01;2.72;;;0.80;;
50853;SDS011;44154;45.506;-122.806;2022-08-19T13:25:27;1.73;;;0.70;;
50853;SDS011;44154;45.506;-122.806;2022-08-19T13:27:53;1.55;;;0.57;;
50853;SDS011;44154;45.506;-122.806;2022-08-19T13:30:21;2.30;;;0.75;;
50853;SDS011;44154;45.506;-122.806;2022-08-19T13:33:06;1.27;;;0.50;;
50853;SDS011;44154;45.506;-122.806;2022-08-19T13:35:49;2.42;;;0.60;;
50853;SDS011;44154;45.506;-122.806;2022-08-19T13:38:22;2.17;;;0.75;;
50853;SDS011;44154;45.506;-122.806;2022-08-19T13:40:50;1.80;;;0.70;;
50853;SDS011;44154;45.506;-122.806;2022-08-19T13:43:18;1.80;;;0.68;;
50853;SDS011;44154;45.506;-122.806;2022-08-19T13:45:47;2.13;;;0.68;;
50853;SDS011;44154;45.506;-122.806;2022-08-19T13:48:13;1.63;;;0.57;;
50853;SDS011;44154;45.506;-122.806;2022-08-19T13:50:42;1.30;;;0.50;;
50853;SDS011;44154;45.506;-122.806;2022-08-19T13:53:10;2.25;;;0.50;;
50853;SDS011;44154;45.506;-122.806;2022-08-19T13:55:37;2.67;;;0.60;;
50853;SDS011;44154;45.506;-122.806;2022-08-19T13:58:05;1.65;;;0.50;;
50853;SDS011;44154;45.506;-122.806;2022-08-19T14:00:35;2.63;;;0.80;;
50853;SDS011;44154;45.506;-122.806;2022-08-19T14:03:03;8.77;;;1.83;;
50853;SDS011;44154;45.506;-122.806;2022-08-19T14:05:31;2.83;;;0.45;;
50853;SDS011;44154;45.506;-122.806;2022-08-19T14:07:58;2.25;;;0.52;;
50853;SDS011;44154;45.506;-122.806;2022-08-19T14:10:25;1.83;;;0.80;;
50853;SDS011;44154;45.506;-122.806;2022-08-19T14:12:53;2.03;;;0.40;;
50853;SDS011;44154;45.506;-122.806;2022-08-19T14:15:23;1.33;;;0.40;;
50853;SDS011;44154;45.506;-122.806;2022-08-19T14:17:50;2.42;;;0.73;;
50853;SDS011;44154;45.506;-122.806;2022-08-19T14:20:17;1.42;;;0.52;;
50853;SDS011;44154;45.506;-122.806;2022-08-19T14:22:44;1.77;;;0.60;;
50853;SDS011;44154;45.506;-122.806;2022-08-19T14:25:16;1.35;;;0.50;;